Terminal Aerodrome Forecast
Issued by NWS

Home | Current Version | Previous Version | Text Only | Print | Product List | Glossary On
Versions: 1 2 3 4 5 6 7 8 9 10 11 12 13 14 15
000
FTUS43 KGRB 231100
TAFMTW
TAF
KMTW 231123Z 2312/2412 19006KT P6SM BKN070
     FM232100 19009KT 6SM -SHRA BKN025 OVC040
     FM240000 21006KT P6SM OVC012
     FM240300 24004KT 4SM BR OVC010
     FM240700 26004KT 6SM BR SCT003
     FM240900 VRB03KT 3/4SM BR BKN003=

USA.gov is the U.S. government's official web portal to all federal, state and local government web resources and services.